sensor_id;sensor_type;location;lat;lon;timestamp;pressure;altitude;pressure_sealevel;temperature;humidity
46087;BME280;31824;49.648;8.640;2023-04-30T00:01:46;100736.78;;;11.60;100.00
46087;BME280;31824;49.648;8.640;2023-04-30T00:04:53;100734.25;;;11.71;100.00
46087;BME280;31824;49.648;8.640;2023-04-30T00:07:55;100735.81;;;11.69;100.00
46087;BME280;31824;49.648;8.640;2023-04-30T00:10:57;100736.84;;;11.79;100.00
46087;BME280;31824;49.648;8.640;2023-04-30T00:13:59;100740.66;;;11.92;100.00
46087;BME280;31824;49.648;8.640;2023-04-30T00:17:01;100746.63;;;11.80;100.00
46087;BME280;31824;49.648;8.640;2023-04-30T00:20:05;100748.28;;;11.89;100.00
46087;BME280;31824;49.648;8.640;2023-04-30T00:23:07;100744.84;;;11.90;100.00
46087;BME280;31824;49.648;8.640;2023-04-30T00:26:09;100742.13;;;11.79;100.00
46087;BME280;31824;49.648;8.640;2023-04-30T00:29:12;100750.22;;;11.63;100.00
46087;BME280;31824;49.648;8.640;2023-04-30T00:32:14;100748.13;;;11.87;100.00
46087;BME280;31824;49.648;8.640;2023-04-30T00:35:17;100758.56;;;11.68;100.00
46087;BME280;31824;49.648;8.640;2023-04-30T00:38:20;100751.75;;;11.70;100.00
46087;BME280;31824;49.648;8.640;2023-04-30T00:41:22;100757.78;;;11.69;100.00
46087;BME280;31824;49.648;8.640;2023-04-30T00:44:26;100756.25;;;11.71;100.00
46087;BME280;31824;49.648;8.640;2023-04-30T00:47:31;100753.75;;;11.73;100.00
46087;BME280;31824;49.648;8.640;2023-04-30T00:50:35;100752.34;;;11.76;100.00
46087;BME280;31824;49.648;8.640;2023-04-30T00:53:37;100752.97;;;11.74;100.00
46087;BME280;31824;49.648;8.640;2023-04-30T00:56:40;100748.84;;;11.67;100.00
46087;BME280;31824;49.648;8.640;2023-04-30T00:59:45;100747.03;;;11.57;100.00
46087;BME280;31824;49.648;8.640;2023-04-30T01:02:48;100754.94;;;11.48;100.00
46087;BME280;31824;49.648;8.640;2023-04-30T01:05:51;100751.53;;;11.49;100.00
46087;BME280;31824;49.648;8.640;2023-04-30T01:08:54;100756.97;;;11.42;100.00
46087;BME280;31824;49.648;8.640;2023-04-30T01:12:06;100744.75;;;11.34;100.00
46087;BME280;31824;49.648;8.640;2023-04-30T01:15:14;100750.66;;;11.31;100.00
46087;BME280;31824;49.648;8.640;2023-04-30T01:18:22;100754.78;;;11.47;100.00
46087;BME280;31824;49.648;8.640;2023-04-30T01:21:31;100747.94;;;11.49;100.00
46087;BME280;31824;49.648;8.640;2023-04-30T01:25:06;100745.31;;;11.49;100.00
46087;BME280;31824;49.648;8.640;2023-04-30T01:28:14;100744.69;;;11.52;100.00
46087;BME280;31824;49.648;8.640;2023-04-30T01:31:18;100744.59;;;11.41;100.00
46087;BME280;31824;49.648;8.640;2023-04-30T01:34:20;100746.34;;;11.23;100.00
46087;BME280;31824;49.648;8.640;2023-04-30T01:37:28;100735.78;;;11.32;100.00
46087;BME280;31824;49.648;8.640;2023-04-30T01:40:40;100738.91;;;11.28;100.00
46087;BME280;31824;49.648;8.640;2023-04-30T01:43:49;100744.44;;;11.31;100.00
46087;BME280;31824;49.648;8.640;2023-04-30T01:47:00;100746.03;;;11.29;100.00
46087;BME280;31824;49.648;8.640;2023-04-30T01:50:14;100741.97;;;11.32;100.00
46087;BME280;31824;49.648;8.640;2023-04-30T01:53:23;100741.53;;;11.28;100.00
46087;BME280;31824;49.648;8.640;2023-04-30T01:56:31;100739.84;;;11.20;100.00
46087;BME280;31824;49.648;8.640;2023-04-30T01:59:40;100745.25;;;11.21;100.00
46087;BME280;31824;49.648;8.640;2023-04-30T02:02:43;100752.84;;;11.18;100.00
46087;BME280;31824;49.648;8.640;2023-04-30T02:05:46;100747.59;;;11.18;100.00
46087;BME280;31824;49.648;8.640;2023-04-30T02:08:47;100760.41;;;11.24;100.00
46087;BME280;31824;49.648;8.640;2023-04-30T02:11:49;55916.78;;;-146.75;100.00
46087;BME280;31824;49.648;8.640;2023-04-30T02:17:41;55916.78;;;-146.75;100.00
46087;BME280;31824;49.648;8.640;2023-04-30T02:20:43;55916.78;;;-146.75;100.00
46087;BME280;31824;49.648;8.640;2023-04-30T02:23:48;55916.78;;;-146.75;100.00
46087;BME280;31824;49.648;8.640;2023-04-30T02:26:50;55916.78;;;-146.75;100.00
46087;BME280;31824;49.648;8.640;2023-04-30T02:32:41;100743.56;;;11.13;100.00
46087;BME280;31824;49.648;8.640;2023-04-30T02:35:43;100747.75;;;11.11;100.00
46087;BME280;31824;49.648;8.640;2023-04-30T02:38:45;100749.94;;;11.06;100.00
46087;BME280;31824;49.648;8.640;2023-04-30T02:41:47;100743.13;;;11.08;100.00
46087;BME280;31824;49.648;8.640;2023-04-30T02:44:49;100753.66;;;11.08;100.00
46087;BME280;31824;49.648;8.640;2023-04-30T02:47:52;100749.78;;;11.05;100.00
46087;BME280;31824;49.648;8.640;2023-04-30T02:50:53;55916.78;;;-146.75;100.00
46087;BME280;31824;49.648;8.640;2023-04-30T02:53:55;55916.78;;;-146.75;100.00
46087;BME280;31824;49.648;8.640;2023-04-30T02:56:57;55916.78;;;-146.75;100.00
46087;BME280;31824;49.648;8.640;2023-04-30T03:17:41;100754.72;;;10.93;100.00
46087;BME280;31824;49.648;8.640;2023-04-30T03:20:46;100752.72;;;10.90;100.00
46087;BME280;31824;49.648;8.640;2023-04-30T03:23:48;100751.00;;;11.00;100.00
46087;BME280;31824;49.648;8.640;2023-04-30T03:26:50;100749.94;;;10.89;100.00
46087;BME280;31824;49.648;8.640;2023-04-30T03:29:52;100743.16;;;10.91;100.00
46087;BME280;31824;49.648;8.640;2023-04-30T03:32:55;100747.13;;;10.96;100.00
46087;BME280;31824;49.648;8.640;2023-04-30T03:35:57;100739.09;;;10.94;100.00
46087;BME280;31824;49.648;8.640;2023-04-30T03:38:59;100743.16;;;10.91;100.00
46087;BME280;31824;49.648;8.640;2023-04-30T03:42:01;100736.34;;;10.93;100.00
46087;BME280;31824;49.648;8.640;2023-04-30T03:45:05;100736.50;;;10.86;100.00
46087;BME280;31824;49.648;8.640;2023-04-30T03:48:08;100748.69;;;10.85;100.00
46087;BME280;31824;49.648;8.640;2023-04-30T03:51:10;100751.00;;;11.17;100.00
46087;BME280;31824;49.648;8.640;2023-04-30T03:54:12;100748.34;;;11.17;100.00
46087;BME280;31824;49.648;8.640;2023-04-30T03:57:14;100744.34;;;11.12;100.00
46087;BME280;31824;49.648;8.640;2023-04-30T04:00:16;100746.06;;;11.11;100.00
46087;BME280;31824;49.648;8.640;2023-04-30T04:03:24;100746.19;;;11.04;100.00
46087;BME280;31824;49.648;8.640;2023-04-30T04:06:26;100739.38;;;11.15;100.00
46087;BME280;31824;49.648;8.640;2023-04-30T04:09:27;100744.63;;;11.24;100.00
46087;BME280;31824;49.648;8.640;2023-04-30T04:12:29;100748.66;;;11.29;100.00
46087;BME280;31824;49.648;8.640;2023-04-30T04:15:32;100750.19;;;11.27;100.00
46087;BME280;31824;49.648;8.640;2023-04-30T04:18:36;100748.31;;;11.26;100.00
46087;BME280;31824;49.648;8.640;2023-04-30T04:21:38;100749.72;;;11.31;100.00
46087;BME280;31824;49.648;8.640;2023-04-30T04:24:46;100751.25;;;11.38;100.00
46087;BME280;31824;49.648;8.640;2023-04-30T04:27:53;100754.78;;;11.47;100.00
46087;BME280;31824;49.648;8.640;2023-04-30T04:30:55;100753.97;;;11.57;100.00
46087;BME280;31824;49.648;8.640;2023-04-30T04:33:59;100759.59;;;11.79;100.00
46087;BME280;31824;49.648;8.640;2023-04-30T04:37:01;100761.94;;;11.76;100.00
46087;BME280;31824;49.648;8.640;2023-04-30T04:40:05;100767.31;;;11.95;100.00
46087;BME280;31824;49.648;8.640;2023-04-30T04:43:07;100767.59;;;11.98;100.00
46087;BME280;31824;49.648;8.640;2023-04-30T04:46:09;100770.53;;;12.01;100.00
46087;BME280;31824;49.648;8.640;2023-04-30T04:49:16;100774.47;;;11.87;100.00
46087;BME280;31824;49.648;8.640;2023-04-30T04:52:17;100770.09;;;11.96;100.00
46087;BME280;31824;49.648;8.640;2023-04-30T04:55:19;100772.19;;;12.09;100.00
46087;BME280;31824;49.648;8.640;2023-04-30T04:58:21;100777.72;;;12.21;100.00
46087;BME280;31824;49.648;8.640;2023-04-30T05:01:23;100775.72;;;12.19;100.00
46087;BME280;31824;49.648;8.640;2023-04-30T05:04:26;100772.91;;;12.17;100.00
46087;BME280;31824;49.648;8.640;2023-04-30T05:07:28;100779.88;;;12.25;100.00
46087;BME280;31824;49.648;8.640;2023-04-30T05:10:31;100770.09;;;12.24;100.00
46087;BME280;31824;49.648;8.640;2023-04-30T05:13:32;100758.13;;;12.28;100.00
46087;BME280;31824;49.648;8.640;2023-04-30T05:16:34;100769.41;;;12.36;100.00
46087;BME280;31824;49.648;8.640;2023-04-30T05:19:37;100771.13;;;12.35;100.00
46087;BME280;31824;49.648;8.640;2023-04-30T05:22:39;100770.69;;;12.49;100.00
46087;BME280;31824;49.648;8.640;2023-04-30T05:25:41;100771.13;;;12.54;100.00
46087;BME280;31824;49.648;8.640;2023-04-30T05:28:43;100772.69;;;12.52;100.00
46087;BME280;31824;49.648;8.640;2023-04-30T05:31:45;100768.50;;;12.54;100.00
46087;BME280;31824;49.648;8.640;2023-04-30T05:34:49;100772.81;;;12.54;100.00
46087;BME280;31824;49.648;8.640;2023-04-30T05:37:51;100773.31;;;12.49;100.00
46087;BME280;31824;49.648;8.640;2023-04-30T05:40:52;100779.09;;;12.45;100.00
46087;BME280;31824;49.648;8.640;2023-04-30T05:43:54;100775.47;;;12.54;100.00
46087;BME280;31824;49.648;8.640;2023-04-30T05:46:56;100777.53;;;12.47;100.00
46087;BME280;31824;49.648;8.640;2023-04-30T05:50:00;100777.69;;;12.49;100.00
46087;BME280;31824;49.648;8.640;2023-04-30T05:53:01;100784.00;;;12.51;100.00
46087;BME280;31824;49.648;8.640;2023-04-30T05:56:04;100783.19;;;12.61;100.00
46087;BME280;31824;49.648;8.640;2023-04-30T05:59:06;100792.09;;;12.53;100.00
46087;BME280;31824;49.648;8.640;2023-04-30T06:02:08;100780.56;;;12.61;100.00
46087;BME280;31824;49.648;8.640;2023-04-30T06:05:12;100785.38;;;12.56;100.00
46087;BME280;31824;49.648;8.640;2023-04-30T06:08:17;100795.75;;;12.82;100.00
46087;BME280;31824;49.648;8.640;2023-04-30T06:11:19;100790.16;;;12.60;100.00
46087;BME280;31824;49.648;8.640;2023-04-30T06:14:21;100791.78;;;12.88;100.00
46087;BME280;31824;49.648;8.640;2023-04-30T06:17:23;100784.50;;;12.85;100.00
46087;BME280;31824;49.648;8.640;2023-04-30T06:20:26;100796.00;;;13.05;100.00
46087;BME280;31824;49.648;8.640;2023-04-30T06:23:28;100798.34;;;13.21;100.00
46087;BME280;31824;49.648;8.640;2023-04-30T06:26:30;100795.50;;;13.09;100.00
46087;BME280;31824;49.648;8.640;2023-04-30T06:29:32;100783.59;;;13.04;100.00
46087;BME280;31824;49.648;8.640;2023-04-30T06:32:34;100795.13;;;13.14;100.00
46087;BME280;31824;49.648;8.640;2023-04-30T06:35:38;100791.84;;;13.17;100.00
46087;BME280;31824;49.648;8.640;2023-04-30T06:38:41;100795.91;;;13.13;100.00
46087;BME280;31824;49.648;8.640;2023-04-30T06:41:43;100798.25;;;13.29;100.00
46087;BME280;31824;49.648;8.640;2023-04-30T06:44:45;100797.13;;;13.17;100.00
46087;BME280;31824;49.648;8.640;2023-04-30T06:47:47;100799.59;;;13.64;100.00
46087;BME280;31824;49.648;8.640;2023-04-30T06:50:51;100796.75;;;13.71;100.00
46087;BME280;31824;49.648;8.640;2023-04-30T06:53:53;100792.91;;;13.67;100.00
46087;BME280;31824;49.648;8.640;2023-04-30T06:56:55;100795.41;;;13.66;100.00
46087;BME280;31824;49.648;8.640;2023-04-30T06:59:57;100804.59;;;13.50;100.00
46087;BME280;31824;49.648;8.640;2023-04-30T07:02:59;100798.09;;;13.47;100.00
46087;BME280;31824;49.648;8.640;2023-04-30T07:06:04;100806.66;;;13.25;100.00
46087;BME280;31824;49.648;8.640;2023-04-30T07:09:06;100798.84;;;13.16;100.00
46087;BME280;31824;49.648;8.640;2023-04-30T07:12:08;100793.94;;;12.92;100.00
46087;BME280;31824;49.648;8.640;2023-04-30T07:15:15;100789.94;;;13.06;100.00
46087;BME280;31824;49.648;8.640;2023-04-30T07:18:17;100796.25;;;13.46;100.00
46087;BME280;31824;49.648;8.640;2023-04-30T07:21:20;100801.44;;;13.55;100.00
46087;BME280;31824;49.648;8.640;2023-04-30T07:24:22;100802.34;;;13.55;100.00
46087;BME280;31824;49.648;8.640;2023-04-30T07:27:24;100801.59;;;13.66;100.00
46087;BME280;31824;49.648;8.640;2023-04-30T07:30:26;100805.25;;;13.58;100.00
46087;BME280;31824;49.648;8.640;2023-04-30T07:33:28;100794.63;;;13.67;100.00
46087;BME280;31824;49.648;8.640;2023-04-30T07:36:32;100792.38;;;13.72;100.00
46087;BME280;31824;49.648;8.640;2023-04-30T07:39:36;100789.13;;;13.95;100.00
46087;BME280;31824;49.648;8.640;2023-04-30T07:42:38;100798.28;;;14.09;100.00
46087;BME280;31824;49.648;8.640;2023-04-30T07:45:41;100791.66;;;13.93;100.00
46087;BME280;31824;49.648;8.640;2023-04-30T07:48:43;100788.25;;;14.15;100.00
46087;BME280;31824;49.648;8.640;2023-04-30T07:51:47;100784.41;;;14.11;100.00
46087;BME280;31824;49.648;8.640;2023-04-30T07:54:48;100783.25;;;14.49;100.00
46087;BME280;31824;49.648;8.640;2023-04-30T07:57:50;100789.22;;;14.36;100.00
46087;BME280;31824;49.648;8.640;2023-04-30T08:00:52;100785.22;;;14.41;100.00
46087;BME280;31824;49.648;8.640;2023-04-30T08:03:54;100783.69;;;14.74;100.00
46087;BME280;31824;49.648;8.640;2023-04-30T08:06:58;100782.34;;;14.90;100.00
46087;BME280;31824;49.648;8.640;2023-04-30T08:09:59;100801.75;;;14.90;100.00
46087;BME280;31824;49.648;8.640;2023-04-30T08:13:02;100797.53;;;14.92;100.00
46087;BME280;31824;49.648;8.640;2023-04-30T08:16:05;100785.56;;;15.18;100.00
46087;BME280;31824;49.648;8.640;2023-04-30T08:19:07;100796.59;;;15.02;100.00
46087;BME280;31824;49.648;8.640;2023-04-30T08:22:13;100789.34;;;14.79;100.00
46087;BME280;31824;49.648;8.640;2023-04-30T08:25:15;100789.38;;;15.22;100.00
46087;BME280;31824;49.648;8.640;2023-04-30T08:28:18;100800.63;;;15.29;100.00
46087;BME280;31824;49.648;8.640;2023-04-30T08:31:20;100794.78;;;15.33;100.00
46087;BME280;31824;49.648;8.640;2023-04-30T08:34:22;100790.34;;;15.55;100.00
46087;BME280;31824;49.648;8.640;2023-04-30T08:37:46;100789.81;;;15.59;100.00
46087;BME280;31824;49.648;8.640;2023-04-30T08:40:53;100784.03;;;15.42;100.00
46087;BME280;31824;49.648;8.640;2023-04-30T08:44:00;100786.56;;;16.17;100.00
46087;BME280;31824;49.648;8.640;2023-04-30T08:47:05;100774.16;;;16.28;100.00
46087;BME280;31824;49.648;8.640;2023-04-30T08:50:09;100783.13;;;16.64;100.00
46087;BME280;31824;49.648;8.640;2023-04-30T08:53:14;100786.75;;;16.88;100.00
46087;BME280;31824;49.648;8.640;2023-04-30T08:56:17;100787.22;;;16.83;100.00
46087;BME280;31824;49.648;8.640;2023-04-30T08:59:22;100780.47;;;16.64;100.00
46087;BME280;31824;49.648;8.640;2023-04-30T09:02:24;100783.97;;;16.07;100.00
46087;BME280;31824;49.648;8.640;2023-04-30T09:05:26;100780.22;;;16.49;100.00
46087;BME280;31824;49.648;8.640;2023-04-30T09:08:43;100772.59;;;16.88;100.00
46087;BME280;31824;49.648;8.640;2023-04-30T09:11:45;100775.19;;;16.64;100.00
46087;BME280;31824;49.648;8.640;2023-04-30T09:14:57;100778.25;;;16.93;100.00
46087;BME280;31824;49.648;8.640;2023-04-30T09:18:06;100782.78;;;17.06;100.00
46087;BME280;31824;49.648;8.640;2023-04-30T09:21:09;100781.03;;;17.42;100.00
46087;BME280;31824;49.648;8.640;2023-04-30T09:24:12;100779.38;;;17.67;100.00
46087;BME280;31824;49.648;8.640;2023-04-30T09:27:15;100773.28;;;18.05;100.00
46087;BME280;31824;49.648;8.640;2023-04-30T09:30:29;100782.41;;;18.09;100.00
46087;BME280;31824;49.648;8.640;2023-04-30T09:33:44;100777.69;;;18.05;100.00
46087;BME280;31824;49.648;8.640;2023-04-30T09:36:51;100774.59;;;17.87;100.00
46087;BME280;31824;49.648;8.640;2023-04-30T09:39:55;100777.31;;;17.51;100.00
46087;BME280;31824;49.648;8.640;2023-04-30T09:43:00;100769.03;;;17.84;100.00
46087;BME280;31824;49.648;8.640;2023-04-30T09:46:05;100775.50;;;17.38;100.00
46087;BME280;31824;49.648;8.640;2023-04-30T09:49:10;100764.00;;;18.12;100.00
46087;BME280;31824;49.648;8.640;2023-04-30T09:52:14;100768.84;;;18.18;100.00
46087;BME280;31824;49.648;8.640;2023-04-30T09:55:18;100762.34;;;17.89;100.00
46087;BME280;31824;49.648;8.640;2023-04-30T09:58:21;100757.25;;;18.29;100.00
46087;BME280;31824;49.648;8.640;2023-04-30T10:01:26;100761.19;;;17.85;100.00
46087;BME280;31824;49.648;8.640;2023-04-30T10:04:29;100755.16;;;18.00;100.00
46087;BME280;31824;49.648;8.640;2023-04-30T10:07:39;100760.56;;;18.13;100.00
46087;BME280;31824;49.648;8.640;2023-04-30T10:10:46;100755.00;;;18.35;100.00
46087;BME280;31824;49.648;8.640;2023-04-30T10:13:53;100749.94;;;18.52;100.00
46087;BME280;31824;49.648;8.640;2023-04-30T10:17:02;100746.06;;;18.60;100.00
46087;BME280;31824;49.648;8.640;2023-04-30T10:20:11;100741.69;;;18.87;100.00
46087;BME280;31824;49.648;8.640;2023-04-30T10:23:14;100737.94;;;18.45;100.00
46087;BME280;31824;49.648;8.640;2023-04-30T10:26:17;100739.22;;;18.64;100.00
46087;BME280;31824;49.648;8.640;2023-04-30T10:29:19;100732.03;;;19.15;100.00
46087;BME280;31824;49.648;8.640;2023-04-30T10:32:21;100738.78;;;18.58;100.00
46087;BME280;31824;49.648;8.640;2023-04-30T10:35:29;100739.78;;;18.85;100.00
46087;BME280;31824;49.648;8.640;2023-04-30T10:38:34;100726.09;;;18.92;100.00
46087;BME280;31824;49.648;8.640;2023-04-30T10:41:48;100730.03;;;18.85;100.00
46087;BME280;31824;49.648;8.640;2023-04-30T10:44:50;100727.53;;;18.62;100.00
46087;BME280;31824;49.648;8.640;2023-04-30T10:47:54;100718.16;;;18.80;100.00
46087;BME280;31824;49.648;8.640;2023-04-30T10:51:10;100710.88;;;18.78;100.00
46087;BME280;31824;49.648;8.640;2023-04-30T10:54:25;100707.38;;;19.04;100.00
46087;BME280;31824;49.648;8.640;2023-04-30T10:57:45;100702.28;;;19.77;100.00
46087;BME280;31824;49.648;8.640;2023-04-30T11:01:04;100701.50;;;19.65;100.00
46087;BME280;31824;49.648;8.640;2023-04-30T11:04:16;100710.06;;;20.16;100.00
46087;BME280;31824;49.648;8.640;2023-04-30T11:07:24;100702.63;;;19.68;100.00
46087;BME280;31824;49.648;8.640;2023-04-30T11:10:31;100701.41;;;18.95;100.00
46087;BME280;31824;49.648;8.640;2023-04-30T11:13:46;100690.34;;;19.02;100.00
46087;BME280;31824;49.648;8.640;2023-04-30T11:16:53;100687.13;;;19.34;100.00
46087;BME280;31824;49.648;8.640;2023-04-30T11:19:59;100682.03;;;19.66;100.00
46087;BME280;31824;49.648;8.640;2023-04-30T11:23:12;100679.50;;;19.54;98.88
46087;BME280;31824;49.648;8.640;2023-04-30T11:26:29;100684.66;;;18.70;100.00
46087;BME280;31824;49.648;8.640;2023-04-30T11:29:42;100689.28;;;18.86;100.00
46087;BME280;31824;49.648;8.640;2023-04-30T11:32:47;100689.25;;;19.53;100.00
46087;BME280;31824;49.648;8.640;2023-04-30T11:36:00;100689.69;;;20.03;95.66
46087;BME280;31824;49.648;8.640;2023-04-30T11:39:03;100692.25;;;20.45;93.14
46087;BME280;31824;49.648;8.640;2023-04-30T11:42:19;100684.06;;;21.01;93.73
46087;BME280;31824;49.648;8.640;2023-04-30T11:45:22;100683.03;;;20.54;84.58
46087;BME280;31824;49.648;8.640;2023-04-30T11:48:24;100677.63;;;20.53;91.05
46087;BME280;31824;49.648;8.640;2023-04-30T11:51:41;100672.38;;;20.54;92.18
46087;BME280;31824;49.648;8.640;2023-04-30T11:54:43;100679.09;;;20.63;93.41
46087;BME280;31824;49.648;8.640;2023-04-30T11:57:52;100667.34;;;20.74;90.84
46087;BME280;31824;49.648;8.640;2023-04-30T12:00:58;100679.56;;;20.85;90.88
46087;BME280;31824;49.648;8.640;2023-04-30T12:04:10;100664.75;;;20.90;83.92
46087;BME280;31824;49.648;8.640;2023-04-30T12:07:12;100657.09;;;20.82;96.38
46087;BME280;31824;49.648;8.640;2023-04-30T12:10:18;100661.88;;;20.72;91.39
46087;BME280;31824;49.648;8.640;2023-04-30T12:13:24;100667.94;;;20.10;86.07
46087;BME280;31824;49.648;8.640;2023-04-30T12:16:40;100659.19;;;20.28;83.41
46087;BME280;31824;49.648;8.640;2023-04-30T12:19:52;100655.75;;;20.00;90.60
46087;BME280;31824;49.648;8.640;2023-04-30T12:22:54;100649.22;;;19.80;87.71
46087;BME280;31824;49.648;8.640;2023-04-30T12:25:58;100652.06;;;20.41;100.00
46087;BME280;31824;49.648;8.640;2023-04-30T12:29:13;100654.81;;;20.73;89.18
46087;BME280;31824;49.648;8.640;2023-04-30T12:32:18;100662.59;;;20.10;86.02
46087;BME280;31824;49.648;8.640;2023-04-30T12:35:28;100651.66;;;20.35;91.85
46087;BME280;31824;49.648;8.640;2023-04-30T12:38:30;100638.13;;;20.17;86.03
46087;BME280;31824;49.648;8.640;2023-04-30T12:41:35;100648.53;;;20.57;88.50
46087;BME280;31824;49.648;8.640;2023-04-30T12:44:43;100635.63;;;19.77;84.20
46087;BME280;31824;49.648;8.640;2023-04-30T12:47:47;100621.78;;;19.26;88.17
46087;BME280;31824;49.648;8.640;2023-04-30T12:50:53;100634.75;;;20.50;86.77
46087;BME280;31824;49.648;8.640;2023-04-30T12:53:55;100623.28;;;20.97;82.39
46087;BME280;31824;49.648;8.640;2023-04-30T12:57:05;100632.81;;;20.32;86.74
46087;BME280;31824;49.648;8.640;2023-04-30T13:00:17;100626.63;;;19.75;88.37
46087;BME280;31824;49.648;8.640;2023-04-30T13:03:20;100608.13;;;19.63;89.36
46087;BME280;31824;49.648;8.640;2023-04-30T13:06:23;100603.06;;;20.71;93.94
46087;BME280;31824;49.648;8.640;2023-04-30T13:09:24;100610.63;;;21.10;85.81
46087;BME280;31824;49.648;8.640;2023-04-30T13:12:36;100598.78;;;21.37;82.60
46087;BME280;31824;49.648;8.640;2023-04-30T13:15:38;100601.00;;;21.78;80.81
46087;BME280;31824;49.648;8.640;2023-04-30T13:18:42;100603.91;;;22.33;78.03
46087;BME280;31824;49.648;8.640;2023-04-30T13:21:54;100608.34;;;21.98;74.23
46087;BME280;31824;49.648;8.640;2023-04-30T13:24:57;100586.50;;;21.08;74.63
46087;BME280;31824;49.648;8.640;2023-04-30T13:28:09;100575.63;;;22.38;81.46
46087;BME280;31824;49.648;8.640;2023-04-30T13:31:12;100576.72;;;22.42;70.74
46087;BME280;31824;49.648;8.640;2023-04-30T13:34:15;100570.41;;;20.91;76.70
46087;BME280;31824;49.648;8.640;2023-04-30T13:37:17;100579.41;;;21.08;92.51
46087;BME280;31824;49.648;8.640;2023-04-30T13:40:19;100569.06;;;20.83;82.46
46087;BME280;31824;49.648;8.640;2023-04-30T13:43:21;100573.22;;;20.02;81.39
46087;BME280;31824;49.648;8.640;2023-04-30T13:46:25;100570.69;;;19.47;78.44
46087;BME280;31824;49.648;8.640;2023-04-30T13:49:31;100559.91;;;21.59;72.24
46087;BME280;31824;49.648;8.640;2023-04-30T13:52:35;100558.59;;;21.85;82.56
46087;BME280;31824;49.648;8.640;2023-04-30T13:55:37;100557.72;;;21.52;78.24
46087;BME280;31824;49.648;8.640;2023-04-30T13:58:39;100552.53;;;22.22;72.53
46087;BME280;31824;49.648;8.640;2023-04-30T14:01:44;100553.25;;;22.02;77.72
46087;BME280;31824;49.648;8.640;2023-04-30T14:04:54;100547.09;;;21.20;78.95
46087;BME280;31824;49.648;8.640;2023-04-30T14:08:16;100541.13;;;21.57;79.71
46087;BME280;31824;49.648;8.640;2023-04-30T14:11:20;100554.03;;;21.33;79.71
46087;BME280;31824;49.648;8.640;2023-04-30T14:14:22;100555.16;;;22.39;75.17
46087;BME280;31824;49.648;8.640;2023-04-30T14:17:32;100549.22;;;22.28;78.12
46087;BME280;31824;49.648;8.640;2023-04-30T14:20:45;100553.47;;;22.06;76.15
46087;BME280;31824;49.648;8.640;2023-04-30T14:23:47;100540.50;;;22.14;79.55
46087;BME280;31824;49.648;8.640;2023-04-30T14:26:55;100550.41;;;22.51;66.01
46087;BME280;31824;49.648;8.640;2023-04-30T14:30:08;100543.69;;;22.07;65.64
46087;BME280;31824;49.648;8.640;2023-04-30T14:33:11;100534.97;;;22.11;71.40
46087;BME280;31824;49.648;8.640;2023-04-30T14:36:15;100533.28;;;21.95;71.71
46087;BME280;31824;49.648;8.640;2023-04-30T14:39:27;100534.03;;;22.81;66.84
46087;BME280;31824;49.648;8.640;2023-04-30T14:42:38;100524.38;;;22.67;86.28
46087;BME280;31824;49.648;8.640;2023-04-30T14:45:40;100528.16;;;22.52;72.24
46087;BME280;31824;49.648;8.640;2023-04-30T14:48:43;100530.16;;;22.04;72.49
46087;BME280;31824;49.648;8.640;2023-04-30T14:51:55;100517.03;;;22.26;79.14
46087;BME280;31824;49.648;8.640;2023-04-30T14:54:57;100519.38;;;22.92;73.01
46087;BME280;31824;49.648;8.640;2023-04-30T14:58:00;100524.53;;;23.45;63.31
46087;BME280;31824;49.648;8.640;2023-04-30T15:01:04;100521.94;;;22.71;67.51
46087;BME280;31824;49.648;8.640;2023-04-30T15:04:06;100506.94;;;22.21;73.09
46087;BME280;31824;49.648;8.640;2023-04-30T15:07:09;100513.56;;;22.83;70.31
46087;BME280;31824;49.648;8.640;2023-04-30T15:10:11;100513.22;;;23.72;64.46
46087;BME280;31824;49.648;8.640;2023-04-30T15:13:13;100508.63;;;23.50;59.52
46087;BME280;31824;49.648;8.640;2023-04-30T15:16:15;100506.16;;;22.77;58.92
46087;BME280;31824;49.648;8.640;2023-04-30T15:19:17;100497.31;;;21.06;73.46
46087;BME280;31824;49.648;8.640;2023-04-30T15:22:21;100504.44;;;23.35;64.89
46087;BME280;31824;49.648;8.640;2023-04-30T15:25:25;100507.47;;;23.23;64.30
46087;BME280;31824;49.648;8.640;2023-04-30T15:28:29;100499.75;;;24.34;61.41
46087;BME280;31824;49.648;8.640;2023-04-30T15:31:33;100493.34;;;24.97;57.84
46087;BME280;31824;49.648;8.640;2023-04-30T15:34:35;100482.25;;;24.21;55.63
46087;BME280;31824;49.648;8.640;2023-04-30T15:37:40;100496.59;;;23.59;59.83
46087;BME280;31824;49.648;8.640;2023-04-30T15:40:42;100498.56;;;24.48;60.27
46087;BME280;31824;49.648;8.640;2023-04-30T15:43:44;100500.34;;;24.69;50.35
46087;BME280;31824;49.648;8.640;2023-04-30T15:46:46;100502.66;;;24.82;56.02
46087;BME280;31824;49.648;8.640;2023-04-30T15:49:48;100490.03;;;24.36;50.96
46087;BME280;31824;49.648;8.640;2023-04-30T15:52:51;100491.94;;;24.17;53.33
46087;BME280;31824;49.648;8.640;2023-04-30T15:55:53;100488.19;;;24.35;57.86
46087;BME280;31824;49.648;8.640;2023-04-30T15:58:56;100484.78;;;23.36;53.29
46087;BME280;31824;49.648;8.640;2023-04-30T16:01:58;100492.06;;;23.39;62.94
46087;BME280;31824;49.648;8.640;2023-04-30T16:05:02;100491.72;;;22.20;60.34
46087;BME280;31824;49.648;8.640;2023-04-30T16:08:06;100480.97;;;21.33;63.63
46087;BME280;31824;49.648;8.640;2023-04-30T16:11:11;100470.38;;;20.38;74.46
46087;BME280;31824;49.648;8.640;2023-04-30T16:14:14;100465.84;;;20.84;79.80
46087;BME280;31824;49.648;8.640;2023-04-30T16:17:16;100458.34;;;21.77;87.36
46087;BME280;31824;49.648;8.640;2023-04-30T16:20:18;100450.28;;;22.12;71.54